sensor_id;sensor_type;location;lat;lon;timestamp;pressure;altitude;pressure_sealevel;temperature;humidity
16451;BME280;12243;42.708;23.310;2022-11-20T00:01:27;94317.00;;;16.10;87.04
16451;BME280;12243;42.708;23.310;2022-11-20T00:03:56;94333.84;;;16.01;87.61
16451;BME280;12243;42.708;23.310;2022-11-20T00:06:25;94324.59;;;16.05;87.48
16451;BME280;12243;42.708;23.310;2022-11-20T00:08:54;94328.06;;;16.20;86.04
16451;BME280;12243;42.708;23.310;2022-11-20T00:11:23;94323.81;;;16.94;78.17
16451;BME280;12243;42.708;23.310;2022-11-20T00:13:51;94331.69;;;17.08;80.88
16451;BME280;12243;42.708;23.310;2022-11-20T00:16:21;94316.38;;;16.97;79.54
16451;BME280;12243;42.708;23.310;2022-11-20T00:18:48;94306.78;;;17.26;77.46
16451;BME280;12243;42.708;23.310;2022-11-20T00:21:16;94289.88;;;17.35;77.01
16451;BME280;12243;42.708;23.310;2022-11-20T00:23:45;94290.31;;;17.38;77.04
16451;BME280;12243;42.708;23.310;2022-11-20T00:26:14;94314.56;;;17.34;76.98
16451;BME280;12243;42.708;23.310;2022-11-20T00:28:42;94298.78;;;17.34;77.76
16451;BME280;12243;42.708;23.310;2022-11-20T00:31:11;94306.41;;;17.29;77.98
16451;BME280;12243;42.708;23.310;2022-11-20T00:33:38;94317.38;;;17.32;76.92
16451;BME280;12243;42.708;23.310;2022-11-20T00:36:07;94304.41;;;17.31;77.60
16451;BME280;12243;42.708;23.310;2022-11-20T00:38:34;94286.84;;;17.59;74.20
16451;BME280;12243;42.708;23.310;2022-11-20T00:41:04;94293.84;;;17.95;71.50
16451;BME280;12243;42.708;23.310;2022-11-20T00:43:32;94280.34;;;18.05;71.27
16451;BME280;12243;42.708;23.310;2022-11-20T00:46:00;94302.13;;;18.14;70.74
16451;BME280;12243;42.708;23.310;2022-11-20T00:48:27;94313.28;;;18.16;70.52
16451;BME280;12243;42.708;23.310;2022-11-20T00:50:55;94300.03;;;18.37;69.20
16451;BME280;12243;42.708;23.310;2022-11-20T00:53:22;94305.38;;;18.50;68.51
16451;BME280;12243;42.708;23.310;2022-11-20T00:55:53;94278.06;;;18.65;67.73
16451;BME280;12243;42.708;23.310;2022-11-20T00:58:22;94298.25;;;18.79;67.42
16451;BME280;12243;42.708;23.310;2022-11-20T01:00:49;94298.69;;;18.83;67.33
16451;BME280;12243;42.708;23.310;2022-11-20T01:03:16;94285.31;;;18.84;67.30
16451;BME280;12243;42.708;23.310;2022-11-20T01:05:43;94285.34;;;18.91;66.86
16451;BME280;12243;42.708;23.310;2022-11-20T01:08:10;94287.41;;;19.02;66.91
16451;BME280;12243;42.708;23.310;2022-11-20T01:10:37;94285.78;;;19.01;67.18
16451;BME280;12243;42.708;23.310;2022-11-20T01:13:04;94280.88;;;18.98;67.33
16451;BME280;12243;42.708;23.310;2022-11-20T01:15:49;94251.66;;;18.99;66.87
16451;BME280;12243;42.708;23.310;2022-11-20T01:18:16;94268.50;;;18.98;66.67
16451;BME280;12243;42.708;23.310;2022-11-20T01:20:43;94284.53;;;18.90;66.96
16451;BME280;12243;42.708;23.310;2022-11-20T01:23:10;94277.06;;;19.00;66.27
16451;BME280;12243;42.708;23.310;2022-11-20T01:25:37;94289.41;;;19.00;66.18
16451;BME280;12243;42.708;23.310;2022-11-20T01:28:04;94262.84;;;19.01;66.06
16451;BME280;12243;42.708;23.310;2022-11-20T01:30:30;94260.84;;;19.17;65.32
16451;BME280;12243;42.708;23.310;2022-11-20T01:32:59;94249.44;;;19.10;65.02
16451;BME280;12243;42.708;23.310;2022-11-20T01:35:26;94259.59;;;19.13;64.77
16451;BME280;12243;42.708;23.310;2022-11-20T01:37:53;94248.44;;;19.17;64.97
16451;BME280;12243;42.708;23.310;2022-11-20T01:40:19;94271.81;;;19.27;64.79
16451;BME280;12243;42.708;23.310;2022-11-20T01:42:53;94233.00;;;19.21;64.62
16451;BME280;12243;42.708;23.310;2022-11-20T01:46:12;94251.75;;;19.33;64.29
16451;BME280;12243;42.708;23.310;2022-11-20T01:48:46;94241.97;;;19.26;64.72
16451;BME280;12243;42.708;23.310;2022-11-20T01:51:21;94241.78;;;19.21;64.92
16451;BME280;12243;42.708;23.310;2022-11-20T01:53:50;94257.81;;;19.20;64.25
16451;BME280;12243;42.708;23.310;2022-11-20T01:56:19;94261.25;;;19.20;64.17
16451;BME280;12243;42.708;23.310;2022-11-20T01:58:48;94265.13;;;19.18;64.49
16451;BME280;12243;42.708;23.310;2022-11-20T02:01:17;94257.81;;;19.20;64.15
16451;BME280;12243;42.708;23.310;2022-11-20T02:03:45;94254.13;;;19.21;64.24
16451;BME280;12243;42.708;23.310;2022-11-20T02:06:28;94257.19;;;19.18;64.17
16451;BME280;12243;42.708;23.310;2022-11-20T02:09:02;94271.22;;;19.18;64.14
16451;BME280;12243;42.708;23.310;2022-11-20T02:11:30;94250.47;;;19.09;64.27
16451;BME280;12243;42.708;23.310;2022-11-20T02:13:57;94269.97;;;19.08;64.47
16451;BME280;12243;42.708;23.310;2022-11-20T02:16:25;94234.63;;;19.09;64.74
16451;BME280;12243;42.708;23.310;2022-11-20T02:18:56;94254.13;;;19.08;64.66
16451;BME280;12243;42.708;23.310;2022-11-20T02:21:28;94251.25;;;19.02;64.82
16451;BME280;12243;42.708;23.310;2022-11-20T02:24:09;94248.84;;;19.08;64.91
16451;BME280;12243;42.708;23.310;2022-11-20T02:26:44;94249.00;;;18.99;65.49
16451;BME280;12243;42.708;23.310;2022-11-20T02:29:13;94249.25;;;19.04;63.89
16451;BME280;12243;42.708;23.310;2022-11-20T02:31:43;94253.13;;;19.15;63.67
16451;BME280;12243;42.708;23.310;2022-11-20T02:34:10;94268.97;;;19.22;64.23
16451;BME280;12243;42.708;23.310;2022-11-20T02:36:39;94222.03;;;19.11;64.53
16451;BME280;12243;42.708;23.310;2022-11-20T02:39:09;94264.50;;;19.16;64.89
16451;BME280;12243;42.708;23.310;2022-11-20T02:41:38;94272.59;;;19.08;65.14
16451;BME280;12243;42.708;23.310;2022-11-20T02:44:05;94268.78;;;19.23;64.48
16451;BME280;12243;42.708;23.310;2022-11-20T02:46:32;94261.66;;;19.24;64.31
16451;BME280;12243;42.708;23.310;2022-11-20T02:49:01;94274.44;;;19.20;64.84
16451;BME280;12243;42.708;23.310;2022-11-20T02:51:28;94279.69;;;19.14;65.67
16451;BME280;12243;42.708;23.310;2022-11-20T02:53:55;94290.66;;;19.11;66.49
16451;BME280;12243;42.708;23.310;2022-11-20T02:56:24;94288.19;;;19.02;66.73
16451;BME280;12243;42.708;23.310;2022-11-20T02:58:51;94284.13;;;19.00;67.54
16451;BME280;12243;42.708;23.310;2022-11-20T03:01:18;94291.06;;;19.01;67.81
16451;BME280;12243;42.708;23.310;2022-11-20T03:03:45;94301.19;;;18.97;68.07
16451;BME280;12243;42.708;23.310;2022-11-20T03:06:14;94313.38;;;18.98;68.50
16451;BME280;12243;42.708;23.310;2022-11-20T03:08:41;94309.88;;;18.91;68.53
16451;BME280;12243;42.708;23.310;2022-11-20T03:11:08;94311.31;;;18.94;68.53
16451;BME280;12243;42.708;23.310;2022-11-20T03:13:37;94316.59;;;18.94;68.82
16451;BME280;12243;42.708;23.310;2022-11-20T03:16:08;94326.28;;;18.80;69.73
16451;BME280;12243;42.708;23.310;2022-11-20T03:18:36;94312.44;;;18.71;69.92
16451;BME280;12243;42.708;23.310;2022-11-20T03:21:03;94309.22;;;18.76;70.38
16451;BME280;12243;42.708;23.310;2022-11-20T03:23:31;94303.94;;;18.83;70.06
16451;BME280;12243;42.708;23.310;2022-11-20T03:26:13;94312.59;;;18.70;70.61
16451;BME280;12243;42.708;23.310;2022-11-20T03:28:42;94325.63;;;18.71;70.83
16451;BME280;12243;42.708;23.310;2022-11-20T03:31:13;94322.47;;;18.61;71.77
16451;BME280;12243;42.708;23.310;2022-11-20T03:33:41;94325.78;;;18.70;70.67
16451;BME280;12243;42.708;23.310;2022-11-20T03:36:10;94339.97;;;18.69;70.90
16451;BME280;12243;42.708;23.310;2022-11-20T03:38:38;94342.38;;;18.64;70.15
16451;BME280;12243;42.708;23.310;2022-11-20T03:41:06;94325.44;;;18.73;70.59
16451;BME280;12243;42.708;23.310;2022-11-20T03:43:34;94349.28;;;18.65;70.59
16451;BME280;12243;42.708;23.310;2022-11-20T03:46:03;94344.81;;;18.59;70.39
16451;BME280;12243;42.708;23.310;2022-11-20T03:48:31;94351.19;;;18.43;71.01
16451;BME280;12243;42.708;23.310;2022-11-20T03:51:12;94338.63;;;18.45;71.63
16451;BME280;12243;42.708;23.310;2022-11-20T03:53:40;94340.84;;;18.48;71.23
16451;BME280;12243;42.708;23.310;2022-11-20T03:56:08;94325.72;;;18.56;70.79
16451;BME280;12243;42.708;23.310;2022-11-20T03:58:36;94328.50;;;18.48;71.36
16451;BME280;12243;42.708;23.310;2022-11-20T04:01:07;94339.81;;;18.42;71.23
16451;BME280;12243;42.708;23.310;2022-11-20T04:03:35;94339.03;;;18.42;71.60
16451;BME280;12243;42.708;23.310;2022-11-20T04:06:04;94339.09;;;18.55;70.95
16451;BME280;12243;42.708;23.310;2022-11-20T04:08:30;94350.38;;;18.42;71.79
16451;BME280;12243;42.708;23.310;2022-11-20T04:11:08;94352.97;;;18.36;72.19
16451;BME280;12243;42.708;23.310;2022-11-20T04:13:35;94359.69;;;18.38;72.60
16451;BME280;12243;42.708;23.310;2022-11-20T04:16:03;94347.47;;;18.37;72.21
16451;BME280;12243;42.708;23.310;2022-11-20T04:18:31;94343.75;;;18.53;71.73
16451;BME280;12243;42.708;23.310;2022-11-20T04:20:58;94320.81;;;18.53;69.45
16451;BME280;12243;42.708;23.310;2022-11-20T04:23:26;94311.94;;;18.61;68.81
16451;BME280;12243;42.708;23.310;2022-11-20T04:25:53;94330.59;;;18.60;69.01
16451;BME280;12243;42.708;23.310;2022-11-20T04:28:20;94322.28;;;18.56;69.59
16451;BME280;12243;42.708;23.310;2022-11-20T04:30:47;94328.34;;;18.56;69.55
16451;BME280;12243;42.708;23.310;2022-11-20T04:33:13;94338.72;;;18.65;69.29
16451;BME280;12243;42.708;23.310;2022-11-20T04:35:42;94340.72;;;18.56;69.72
16451;BME280;12243;42.708;23.310;2022-11-20T04:38:10;94360.53;;;18.45;70.65
16451;BME280;12243;42.708;23.310;2022-11-20T04:40:37;94337.50;;;18.61;68.45
16451;BME280;12243;42.708;23.310;2022-11-20T04:43:04;94323.16;;;18.70;67.81
16451;BME280;12243;42.708;23.310;2022-11-20T04:45:31;94328.00;;;18.66;67.96
16451;BME280;12243;42.708;23.310;2022-11-20T04:47:57;94314.53;;;18.54;68.71
16451;BME280;12243;42.708;23.310;2022-11-20T04:50:24;94334.34;;;18.72;68.25
16451;BME280;12243;42.708;23.310;2022-11-20T04:52:54;94324.75;;;18.64;68.46
16451;BME280;12243;42.708;23.310;2022-11-20T04:55:20;94331.16;;;18.48;69.51
16451;BME280;12243;42.708;23.310;2022-11-20T04:57:49;94326.06;;;18.47;70.09
16451;BME280;12243;42.708;23.310;2022-11-20T05:00:17;94308.78;;;18.44;70.08
16451;BME280;12243;42.708;23.310;2022-11-20T05:02:43;94301.91;;;18.43;70.02
16451;BME280;12243;42.708;23.310;2022-11-20T05:05:10;94294.75;;;18.37;69.66
16451;BME280;12243;42.708;23.310;2022-11-20T05:07:37;94304.00;;;18.26;70.52
16451;BME280;12243;42.708;23.310;2022-11-20T05:10:06;94295.59;;;18.38;70.41
16451;BME280;12243;42.708;23.310;2022-11-20T05:12:33;94297.38;;;18.37;70.19
16451;BME280;12243;42.708;23.310;2022-11-20T05:15:00;94297.56;;;18.29;70.58
16451;BME280;12243;42.708;23.310;2022-11-20T05:17:27;94286.59;;;18.25;70.07
16451;BME280;12243;42.708;23.310;2022-11-20T05:19:54;94292.31;;;18.36;69.57
16451;BME280;12243;42.708;23.310;2022-11-20T05:22:21;94299.56;;;18.27;70.07
16451;BME280;12243;42.708;23.310;2022-11-20T05:24:48;94302.19;;;18.27;69.94
16451;BME280;12243;42.708;23.310;2022-11-20T05:27:16;94301.22;;;18.28;70.32
16451;BME280;12243;42.708;23.310;2022-11-20T05:29:43;94294.81;;;18.16;70.67
16451;BME280;12243;42.708;23.310;2022-11-20T05:32:10;94292.22;;;18.22;69.89
16451;BME280;12243;42.708;23.310;2022-11-20T05:34:37;94294.75;;;18.30;69.79
16451;BME280;12243;42.708;23.310;2022-11-20T05:37:04;94294.69;;;18.24;70.20
16451;BME280;12243;42.708;23.310;2022-11-20T05:39:31;94299.97;;;18.24;70.40
16451;BME280;12243;42.708;23.310;2022-11-20T05:41:58;94295.94;;;18.28;70.38
16451;BME280;12243;42.708;23.310;2022-11-20T05:44:40;94308.38;;;18.13;71.72
16451;BME280;12243;42.708;23.310;2022-11-20T05:47:06;94302.88;;;18.07;72.65
16451;BME280;12243;42.708;23.310;2022-11-20T05:49:33;94296.97;;;18.05;74.37
16451;BME280;12243;42.708;23.310;2022-11-20T05:52:00;94303.84;;;18.00;75.51
16451;BME280;12243;42.708;23.310;2022-11-20T05:54:27;94302.06;;;17.79;77.23
16451;BME280;12243;42.708;23.310;2022-11-20T05:56:54;94304.06;;;17.77;78.48
16451;BME280;12243;42.708;23.310;2022-11-20T05:59:21;94299.28;;;17.66;78.86
16451;BME280;12243;42.708;23.310;2022-11-20T06:01:49;94294.75;;;17.59;79.73
16451;BME280;12243;42.708;23.310;2022-11-20T06:04:16;94302.34;;;17.48;79.74
16451;BME280;12243;42.708;23.310;2022-11-20T06:06:43;94312.63;;;17.43;79.30
16451;BME280;12243;42.708;23.310;2022-11-20T06:09:10;94320.78;;;17.48;79.51
16451;BME280;12243;42.708;23.310;2022-11-20T06:11:36;94324.66;;;17.52;78.90
16451;BME280;12243;42.708;23.310;2022-11-20T06:14:03;94321.72;;;17.61;78.50
16451;BME280;12243;42.708;23.310;2022-11-20T06:16:30;94318.81;;;17.56;78.08
16451;BME280;12243;42.708;23.310;2022-11-20T06:18:59;94313.19;;;17.59;78.35
16451;BME280;12243;42.708;23.310;2022-11-20T06:21:26;94289.56;;;17.66;78.08
16451;BME280;12243;42.708;23.310;2022-11-20T06:23:52;94302.50;;;17.68;77.94
16451;BME280;12243;42.708;23.310;2022-11-20T06:26:21;94311.69;;;17.72;77.52
16451;BME280;12243;42.708;23.310;2022-11-20T06:28:48;94303.16;;;17.70;77.56
16451;BME280;12243;42.708;23.310;2022-11-20T06:31:17;94310.41;;;17.68;77.29
16451;BME280;12243;42.708;23.310;2022-11-20T06:33:44;94321.16;;;17.88;76.31
16451;BME280;12243;42.708;23.310;2022-11-20T06:36:15;94327.00;;;17.83;76.66
16451;BME280;12243;42.708;23.310;2022-11-20T06:38:42;94320.72;;;17.84;77.11
16451;BME280;12243;42.708;23.310;2022-11-20T06:41:11;94308.19;;;17.86;77.01
16451;BME280;12243;42.708;23.310;2022-11-20T06:43:38;94326.00;;;17.84;77.07
16451;BME280;12243;42.708;23.310;2022-11-20T06:46:05;94340.63;;;17.87;77.23
16451;BME280;12243;42.708;23.310;2022-11-20T06:48:32;94348.97;;;17.90;77.03
16451;BME280;12243;42.708;23.310;2022-11-20T06:50:59;94338.47;;;17.97;76.12
16451;BME280;12243;42.708;23.310;2022-11-20T06:53:27;94330.38;;;17.98;75.82
16451;BME280;12243;42.708;23.310;2022-11-20T06:55:55;94333.63;;;18.00;75.62
16451;BME280;12243;42.708;23.310;2022-11-20T06:58:23;94341.53;;;18.00;76.16
16451;BME280;12243;42.708;23.310;2022-11-20T07:00:52;94343.97;;;18.02;76.22
16451;BME280;12243;42.708;23.310;2022-11-20T07:03:19;94331.50;;;18.11;75.92
16451;BME280;12243;42.708;23.310;2022-11-20T07:05:46;94326.81;;;18.34;74.51
16451;BME280;12243;42.708;23.310;2022-11-20T07:08:13;94343.56;;;18.26;74.09
16451;BME280;12243;42.708;23.310;2022-11-20T07:10:41;94361.97;;;18.20;74.52
16451;BME280;12243;42.708;23.310;2022-11-20T07:13:08;94373.34;;;18.20;75.31
16451;BME280;12243;42.708;23.310;2022-11-20T07:15:35;94360.97;;;18.21;75.51
16451;BME280;12243;42.708;23.310;2022-11-20T07:18:02;94374.53;;;18.18;74.74
16451;BME280;12243;42.708;23.310;2022-11-20T07:20:29;94370.38;;;18.08;75.20
16451;BME280;12243;42.708;23.310;2022-11-20T07:22:56;94366.72;;;18.03;75.40
16451;BME280;12243;42.708;23.310;2022-11-20T07:25:24;94357.91;;;18.17;75.05
16451;BME280;12243;42.708;23.310;2022-11-20T07:27:52;94357.53;;;18.20;74.59
16451;BME280;12243;42.708;23.310;2022-11-20T07:30:19;94357.56;;;18.27;74.45
16451;BME280;12243;42.708;23.310;2022-11-20T07:32:46;94369.38;;;18.31;73.92
16451;BME280;12243;42.708;23.310;2022-11-20T07:35:13;94374.38;;;18.26;74.38
16451;BME280;12243;42.708;23.310;2022-11-20T07:37:41;94369.75;;;18.28;73.80
16451;BME280;12243;42.708;23.310;2022-11-20T07:40:09;94382.22;;;18.19;73.97
16451;BME280;12243;42.708;23.310;2022-11-20T07:42:36;94378.56;;;18.14;74.27
16451;BME280;12243;42.708;23.310;2022-11-20T07:45:05;94380.66;;;18.25;74.43
16451;BME280;12243;42.708;23.310;2022-11-20T07:47:35;94376.66;;;18.07;74.52
16451;BME280;12243;42.708;23.310;2022-11-20T07:50:02;94367.38;;;18.12;74.88
16451;BME280;12243;42.708;23.310;2022-11-20T07:52:29;94352.19;;;18.14;75.28
16451;BME280;12243;42.708;23.310;2022-11-20T07:54:56;94361.47;;;18.09;75.32
16451;BME280;12243;42.708;23.310;2022-11-20T07:57:23;94364.25;;;18.01;75.45
16451;BME280;12243;42.708;23.310;2022-11-20T07:59:50;94374.03;;;18.07;74.02
16451;BME280;12243;42.708;23.310;2022-11-20T08:02:18;94369.13;;;18.04;74.59
16451;BME280;12243;42.708;23.310;2022-11-20T08:04:45;94371.56;;;18.06;74.41
16451;BME280;12243;42.708;23.310;2022-11-20T08:07:12;94377.78;;;17.98;75.52
16451;BME280;12243;42.708;23.310;2022-11-20T08:09:39;94390.00;;;17.99;75.10
16451;BME280;12243;42.708;23.310;2022-11-20T08:12:06;94375.22;;;18.05;74.35
16451;BME280;12243;42.708;23.310;2022-11-20T08:14:50;94358.34;;;18.21;73.38
16451;BME280;12243;42.708;23.310;2022-11-20T08:17:18;94357.31;;;18.22;72.84
16451;BME280;12243;42.708;23.310;2022-11-20T08:19:45;94362.81;;;18.20;73.15
16451;BME280;12243;42.708;23.310;2022-11-20T08:22:12;94356.06;;;18.18;74.04
16451;BME280;12243;42.708;23.310;2022-11-20T08:24:39;94360.53;;;18.17;74.64
16451;BME280;12243;42.708;23.310;2022-11-20T08:27:06;94369.09;;;17.98;75.88
16451;BME280;12243;42.708;23.310;2022-11-20T08:29:33;94373.53;;;17.97;76.64
16451;BME280;12243;42.708;23.310;2022-11-20T08:32:00;94393.38;;;17.93;77.27
16451;BME280;12243;42.708;23.310;2022-11-20T08:34:28;94388.84;;;17.87;78.10
16451;BME280;12243;42.708;23.310;2022-11-20T08:36:55;94379.47;;;18.06;77.07
16451;BME280;12243;42.708;23.310;2022-11-20T08:39:22;94375.59;;;18.02;76.71
16451;BME280;12243;42.708;23.310;2022-11-20T08:41:49;94385.91;;;17.97;76.97
16451;BME280;12243;42.708;23.310;2022-11-20T08:44:15;94391.75;;;17.92;77.57
16451;BME280;12243;42.708;23.310;2022-11-20T08:46:42;94406.41;;;18.01;77.77
16451;BME280;12243;42.708;23.310;2022-11-20T08:49:12;94417.59;;;18.03;78.30
16451;BME280;12243;42.708;23.310;2022-11-20T08:51:41;94432.88;;;18.15;77.83
16451;BME280;12243;42.708;23.310;2022-11-20T08:54:08;94416.66;;;17.90;81.06
16451;BME280;12243;42.708;23.310;2022-11-20T08:56:35;94418.47;;;17.74;82.75
16451;BME280;12243;42.708;23.310;2022-11-20T08:59:02;94409.06;;;17.65;86.11
16451;BME280;12243;42.708;23.310;2022-11-20T09:01:29;94408.34;;;17.56;87.89
16451;BME280;12243;42.708;23.310;2022-11-20T09:03:56;94417.72;;;17.59;88.37
16451;BME280;12243;42.708;23.310;2022-11-20T09:06:23;94419.16;;;17.61;89.78
16451;BME280;12243;42.708;23.310;2022-11-20T09:08:53;94429.03;;;17.59;89.46
16451;BME280;12243;42.708;23.310;2022-11-20T09:11:20;94423.16;;;17.57;91.60
16451;BME280;12243;42.708;23.310;2022-11-20T09:13:47;94426.69;;;17.65;91.74
16451;BME280;12243;42.708;23.310;2022-11-20T09:16:14;94428.53;;;17.49;92.12
16451;BME280;12243;42.708;23.310;2022-11-20T09:18:41;94424.47;;;17.32;93.32
16451;BME280;12243;42.708;23.310;2022-11-20T09:21:10;94436.84;;;17.17;95.38
16451;BME280;12243;42.708;23.310;2022-11-20T09:23:38;94428.13;;;17.16;96.35
16451;BME280;12243;42.708;23.310;2022-11-20T09:26:12;94433.78;;;16.98;98.51
16451;BME280;12243;42.708;23.310;2022-11-20T09:28:39;94420.78;;;16.82;93.31
16451;BME280;12243;42.708;23.310;2022-11-20T09:31:07;94425.47;;;16.72;94.47
16451;BME280;12243;42.708;23.310;2022-11-20T09:33:34;94414.41;;;16.61;95.61
16451;BME280;12243;42.708;23.310;2022-11-20T09:36:01;94403.16;;;16.53;93.40
16451;BME280;12243;42.708;23.310;2022-11-20T09:38:28;94397.41;;;16.49;95.36
16451;BME280;12243;42.708;23.310;2022-11-20T09:40:57;94391.44;;;16.55;95.79
16451;BME280;12243;42.708;23.310;2022-11-20T09:43:36;94380.88;;;16.63;97.04
16451;BME280;12243;42.708;23.310;2022-11-20T09:46:11;94382.91;;;16.91;97.42
16451;BME280;12243;42.708;23.310;2022-11-20T09:48:48;94388.47;;;17.18;97.32
16451;BME280;12243;42.708;23.310;2022-11-20T09:51:30;94377.31;;;17.52;97.22
16451;BME280;12243;42.708;23.310;2022-11-20T09:54:09;94377.84;;;17.62;96.02
16451;BME280;12243;42.708;23.310;2022-11-20T09:56:41;94378.88;;;17.46;98.30
16451;BME280;12243;42.708;23.310;2022-11-20T09:59:22;94378.41;;;17.57;98.58
16451;BME280;12243;42.708;23.310;2022-11-20T10:01:50;94376.75;;;17.56;98.33
16451;BME280;12243;42.708;23.310;2022-11-20T10:04:19;94360.28;;;17.69;98.46
16451;BME280;12243;42.708;23.310;2022-11-20T10:06:51;94365.72;;;17.82;97.92
16451;BME280;12243;42.708;23.310;2022-11-20T10:09:24;94361.00;;;17.99;97.47
16451;BME280;12243;42.708;23.310;2022-11-20T10:12:07;94359.03;;;18.08;93.13
16451;BME280;12243;42.708;23.310;2022-11-20T10:14:50;94350.91;;;18.03;93.11
16451;BME280;12243;42.708;23.310;2022-11-20T10:17:31;94342.69;;;17.91;92.54
16451;BME280;12243;42.708;23.310;2022-11-20T10:20:16;94342.06;;;17.89;93.24
16451;BME280;12243;42.708;23.310;2022-11-20T10:22:58;94336.91;;;17.81;92.83
16451;BME280;12243;42.708;23.310;2022-11-20T10:25:36;94345.16;;;17.56;93.49
16451;BME280;12243;42.708;23.310;2022-11-20T10:28:14;94336.88;;;17.38;95.17
16451;BME280;12243;42.708;23.310;2022-11-20T10:30:46;94346.38;;;17.18;96.40
16451;BME280;12243;42.708;23.310;2022-11-20T10:33:19;94362.88;;;17.11;97.60
16451;BME280;12243;42.708;23.310;2022-11-20T10:35:52;94369.16;;;17.10;98.18
16451;BME280;12243;42.708;23.310;2022-11-20T10:38:23;94357.25;;;17.14;97.80
16451;BME280;12243;42.708;23.310;2022-11-20T10:40:55;94358.16;;;17.22;97.38
16451;BME280;12243;42.708;23.310;2022-11-20T10:43:44;94372.09;;;17.37;96.91
16451;BME280;12243;42.708;23.310;2022-11-20T10:46:16;94367.41;;;17.18;97.92
16451;BME280;12243;42.708;23.310;2022-11-20T10:48:45;94364.47;;;17.06;98.98
16451;BME280;12243;42.708;23.310;2022-11-20T10:51:21;94358.56;;;16.89;98.16
16451;BME280;12243;42.708;23.310;2022-11-20T10:54:02;94346.88;;;16.92;98.76
16451;BME280;12243;42.708;23.310;2022-11-20T10:56:38;94360.66;;;16.94;98.43
16451;BME280;12243;42.708;23.310;2022-11-20T10:59:24;94368.09;;;16.90;99.06
16451;BME280;12243;42.708;23.310;2022-11-20T11:01:55;94367.53;;;16.80;99.61
16451;BME280;12243;42.708;23.310;2022-11-20T11:04:33;94362.88;;;16.52;100.00
16451;BME280;12243;42.708;23.310;2022-11-20T11:07:08;94415.78;;;16.19;98.16
16451;BME280;12243;42.708;23.310;2022-11-20T11:09:43;94435.25;;;15.79;100.00
16451;BME280;12243;42.708;23.310;2022-11-20T11:12:10;94448.16;;;14.79;97.57
16451;BME280;12243;42.708;23.310;2022-11-20T11:14:48;94415.31;;;14.11;99.75
16451;BME280;12243;42.708;23.310;2022-11-20T11:17:31;94419.72;;;13.94;100.00
16451;BME280;12243;42.708;23.310;2022-11-20T11:20:04;94409.75;;;13.90;100.00
16451;BME280;12243;42.708;23.310;2022-11-20T11:22:33;94391.41;;;13.98;100.00
16451;BME280;12243;42.708;23.310;2022-11-20T11:25:02;94393.72;;;13.93;100.00
16451;BME280;12243;42.708;23.310;2022-11-20T11:27:29;94390.13;;;13.94;100.00
16451;BME280;12243;42.708;23.310;2022-11-20T11:30:15;94373.59;;;13.93;100.00
16451;BME280;12243;42.708;23.310;2022-11-20T11:32:44;94361.81;;;13.97;100.00
16451;BME280;12243;42.708;23.310;2022-11-20T11:35:25;94366.41;;;13.95;100.00
16451;BME280;12243;42.708;23.310;2022-11-20T11:37:54;94386.53;;;13.95;100.00
16451;BME280;12243;42.708;23.310;2022-11-20T11:40:31;94367.22;;;13.96;100.00
16451;BME280;12243;42.708;23.310;2022-11-20T11:43:00;94372.28;;;14.05;100.00
16451;BME280;12243;42.708;23.310;2022-11-20T11:45:28;94392.91;;;14.00;100.00
16451;BME280;12243;42.708;23.310;2022-11-20T11:47:57;94397.31;;;14.08;100.00
16451;BME280;12243;42.708;23.310;2022-11-20T11:50:26;94371.59;;;14.12;100.00
16451;BME280;12243;42.708;23.310;2022-11-20T11:53:03;94372.44;;;14.20;100.00
16451;BME280;12243;42.708;23.310;2022-11-20T11:55:36;94369.63;;;14.22;97.89
16451;BME280;12243;42.708;23.310;2022-11-20T11:58:13;94369.16;;;14.26;99.06
16451;BME280;12243;42.708;23.310;2022-11-20T12:00:50;94375.03;;;14.37;97.64
16451;BME280;12243;42.708;23.310;2022-11-20T12:03:22;94390.53;;;14.46;97.64
16451;BME280;12243;42.708;23.310;2022-11-20T12:05:57;94394.97;;;14.46;97.30
16451;BME280;12243;42.708;23.310;2022-11-20T12:08:27;94393.53;;;14.51;95.74
16451;BME280;12243;42.708;23.310;2022-11-20T12:10:59;94389.41;;;14.65;94.76
16451;BME280;12243;42.708;23.310;2022-11-20T12:13:39;94378.91;;;14.65;94.46
16451;BME280;12243;42.708;23.310;2022-11-20T12:16:12;94374.28;;;14.75;92.57
16451;BME280;12243;42.708;23.310;2022-11-20T12:18:41;94380.50;;;14.83;90.53
16451;BME280;12243;42.708;23.310;2022-11-20T12:21:18;94374.91;;;14.86;90.68
16451;BME280;12243;42.708;23.310;2022-11-20T12:24:03;94382.56;;;14.95;90.66
16451;BME280;12243;42.708;23.310;2022-11-20T12:26:42;94369.44;;;14.95;88.69
16451;BME280;12243;42.708;23.310;2022-11-20T12:29:18;94373.25;;;14.93;90.05
16451;BME280;12243;42.708;23.310;2022-11-20T12:32:06;94391.75;;;14.91;92.40
16451;BME280;12243;42.708;23.310;2022-11-20T12:34:52;94377.50;;;14.94;92.57
16451;BME280;12243;42.708;23.310;2022-11-20T12:37:30;94374.91;;;14.86;94.56
16451;BME280;12243;42.708;23.310;2022-11-20T12:40:15;94340.88;;;14.69;89.93
16451;BME280;12243;42.708;23.310;2022-11-20T12:43:01;94335.47;;;14.71;92.37
16451;BME280;12243;42.708;23.310;2022-11-20T12:46:00;94319.25;;;14.67;91.54
16451;BME280;12243;42.708;23.310;2022-11-20T12:48:46;94341.50;;;14.80;91.75
16451;BME280;12243;42.708;23.310;2022-11-20T12:51:30;94348.00;;;14.92;93.38
16451;BME280;12243;42.708;23.310;2022-11-20T12:54:11;94336.31;;;14.71;97.74
16451;BME280;12243;42.708;23.310;2022-11-20T12:56:50;94336.72;;;14.27;100.00
16451;BME280;12243;42.708;23.310;2022-11-20T12:59:41;94331.53;;;14.03;100.00
16451;BME280;12243;42.708;23.310;2022-11-20T13:02:23;94343.16;;;13.84;100.00
16451;BME280;12243;42.708;23.310;2022-11-20T13:05:03;94344.97;;;13.75;100.00
16451;BME280;12243;42.708;23.310;2022-11-20T13:07:35;94319.44;;;13.69;100.00